sensor_id;sensor_type;location;lat;lon;timestamp;P1;durP1;ratioP1;P2;durP2;ratioP2
32932;SDS011;19444;50.518;10.870;2023-06-10T00:02:50;7.93;;;6.70;;
32932;SDS011;19444;50.518;10.870;2023-06-10T00:05:47;6.53;;;5.85;;
32932;SDS011;19444;50.518;10.870;2023-06-10T00:08:45;9.85;;;6.55;;
32932;SDS011;19444;50.518;10.870;2023-06-10T00:11:43;7.30;;;6.53;;
32932;SDS011;19444;50.518;10.870;2023-06-10T00:14:40;7.07;;;6.38;;
32932;SDS011;19444;50.518;10.870;2023-06-10T00:17:37;8.23;;;6.75;;
32932;SDS011;19444;50.518;10.870;2023-06-10T00:20:35;8.35;;;6.68;;
32932;SDS011;19444;50.518;10.870;2023-06-10T00:23:34;9.77;;;7.20;;
32932;SDS011;19444;50.518;10.870;2023-06-10T00:26:33;7.95;;;6.60;;
32932;SDS011;19444;50.518;10.870;2023-06-10T00:29:30;7.93;;;6.43;;
32932;SDS011;19444;50.518;10.870;2023-06-10T00:32:27;9.18;;;6.38;;
32932;SDS011;19444;50.518;10.870;2023-06-10T00:35:24;7.85;;;7.05;;
32932;SDS011;19444;50.518;10.870;2023-06-10T00:38:21;8.65;;;6.68;;
32932;SDS011;19444;50.518;10.870;2023-06-10T00:41:18;7.65;;;6.80;;
32932;SDS011;19444;50.518;10.870;2023-06-10T00:44:15;7.28;;;6.38;;
32932;SDS011;19444;50.518;10.870;2023-06-10T00:47:13;7.15;;;6.18;;
32932;SDS011;19444;50.518;10.870;2023-06-10T00:50:10;9.98;;;6.85;;
32932;SDS011;19444;50.518;10.870;2023-06-10T00:53:08;7.60;;;6.47;;
32932;SDS011;19444;50.518;10.870;2023-06-10T00:56:06;8.52;;;7.20;;
32932;SDS011;19444;50.518;10.870;2023-06-10T00:59:03;9.02;;;6.47;;
32932;SDS011;19444;50.518;10.870;2023-06-10T01:02:00;8.75;;;6.85;;
32932;SDS011;19444;50.518;10.870;2023-06-10T01:04:59;8.50;;;6.50;;
32932;SDS011;19444;50.518;10.870;2023-06-10T01:08:03;8.43;;;6.97;;
32932;SDS011;19444;50.518;10.870;2023-06-10T01:11:25;7.00;;;6.15;;
32932;SDS011;19444;50.518;10.870;2023-06-10T01:14:47;8.40;;;7.20;;
32932;SDS011;19444;50.518;10.870;2023-06-10T01:20:55;7.20;;;6.50;;
32932;SDS011;19444;50.518;10.870;2023-06-10T01:23:53;8.35;;;6.60;;
32932;SDS011;19444;50.518;10.870;2023-06-10T01:26:52;7.50;;;6.30;;
32932;SDS011;19444;50.518;10.870;2023-06-10T01:30:04;9.13;;;6.70;;
32932;SDS011;19444;50.518;10.870;2023-06-10T01:33:15;8.63;;;7.30;;
32932;SDS011;19444;50.518;10.870;2023-06-10T01:36:22;12.93;;;7.03;;
32932;SDS011;19444;50.518;10.870;2023-06-10T01:39:22;9.43;;;6.53;;
32932;SDS011;19444;50.518;10.870;2023-06-10T01:42:21;7.95;;;6.60;;
32932;SDS011;19444;50.518;10.870;2023-06-10T01:45:19;8.15;;;6.35;;
32932;SDS011;19444;50.518;10.870;2023-06-10T01:48:16;7.07;;;5.90;;
32932;SDS011;19444;50.518;10.870;2023-06-10T01:51:13;10.13;;;6.25;;
32932;SDS011;19444;50.518;10.870;2023-06-10T01:54:10;9.40;;;5.63;;
32932;SDS011;19444;50.518;10.870;2023-06-10T01:57:07;8.38;;;6.40;;
32932;SDS011;19444;50.518;10.870;2023-06-10T02:00:04;6.75;;;5.93;;
32932;SDS011;19444;50.518;10.870;2023-06-10T02:03:01;9.32;;;6.18;;
32932;SDS011;19444;50.518;10.870;2023-06-10T02:05:58;7.57;;;6.30;;
32932;SDS011;19444;50.518;10.870;2023-06-10T02:08:55;9.05;;;6.47;;
32932;SDS011;19444;50.518;10.870;2023-06-10T02:11:52;8.75;;;6.63;;
32932;SDS011;19444;50.518;10.870;2023-06-10T02:14:49;7.47;;;6.53;;
32932;SDS011;19444;50.518;10.870;2023-06-10T02:17:46;8.10;;;6.68;;
32932;SDS011;19444;50.518;10.870;2023-06-10T02:20:45;7.47;;;5.68;;
32932;SDS011;19444;50.518;10.870;2023-06-10T02:23:42;8.70;;;6.55;;
32932;SDS011;19444;50.518;10.870;2023-06-10T02:26:39;8.13;;;6.57;;
32932;SDS011;19444;50.518;10.870;2023-06-10T02:29:37;8.15;;;6.50;;
32932;SDS011;19444;50.518;10.870;2023-06-10T02:32:33;7.05;;;5.80;;
32932;SDS011;19444;50.518;10.870;2023-06-10T02:35:30;10.85;;;6.53;;
32932;SDS011;19444;50.518;10.870;2023-06-10T02:38:27;8.45;;;6.50;;
32932;SDS011;19444;50.518;10.870;2023-06-10T02:41:24;8.38;;;6.93;;
32932;SDS011;19444;50.518;10.870;2023-06-10T02:44:21;8.75;;;6.30;;
32932;SDS011;19444;50.518;10.870;2023-06-10T02:47:18;9.68;;;7.30;;
32932;SDS011;19444;50.518;10.870;2023-06-10T02:50:15;7.95;;;6.35;;
32932;SDS011;19444;50.518;10.870;2023-06-10T02:53:12;8.23;;;7.25;;
32932;SDS011;19444;50.518;10.870;2023-06-10T02:56:09;9.52;;;7.43;;
32932;SDS011;19444;50.518;10.870;2023-06-10T02:59:06;8.63;;;7.40;;
32932;SDS011;19444;50.518;10.870;2023-06-10T03:02:04;8.75;;;7.15;;
32932;SDS011;19444;50.518;10.870;2023-06-10T03:05:01;11.07;;;6.82;;
32932;SDS011;19444;50.518;10.870;2023-06-10T03:07:58;9.13;;;6.90;;
32932;SDS011;19444;50.518;10.870;2023-06-10T03:10:55;8.40;;;6.47;;
32932;SDS011;19444;50.518;10.870;2023-06-10T03:13:52;9.43;;;7.15;;
32932;SDS011;19444;50.518;10.870;2023-06-10T03:16:49;8.50;;;7.60;;
32932;SDS011;19444;50.518;10.870;2023-06-10T03:19:46;6.90;;;6.20;;
32932;SDS011;19444;50.518;10.870;2023-06-10T03:22:43;8.02;;;6.68;;
32932;SDS011;19444;50.518;10.870;2023-06-10T03:25:40;8.10;;;6.70;;
32932;SDS011;19444;50.518;10.870;2023-06-10T03:28:37;9.88;;;7.28;;
32932;SDS011;19444;50.518;10.870;2023-06-10T03:31:34;9.20;;;7.32;;
32932;SDS011;19444;50.518;10.870;2023-06-10T03:34:32;10.38;;;6.95;;
32932;SDS011;19444;50.518;10.870;2023-06-10T03:37:30;11.88;;;7.25;;
32932;SDS011;19444;50.518;10.870;2023-06-10T03:40:27;7.07;;;6.30;;
32932;SDS011;19444;50.518;10.870;2023-06-10T03:43:23;9.45;;;6.70;;
32932;SDS011;19444;50.518;10.870;2023-06-10T03:46:20;8.07;;;7.05;;
32932;SDS011;19444;50.518;10.870;2023-06-10T03:49:17;7.20;;;5.53;;
32932;SDS011;19444;50.518;10.870;2023-06-10T03:52:14;7.82;;;6.38;;
32932;SDS011;19444;50.518;10.870;2023-06-10T03:55:11;8.20;;;5.15;;
32932;SDS011;19444;50.518;10.870;2023-06-10T03:58:09;9.10;;;6.43;;
32932;SDS011;19444;50.518;10.870;2023-06-10T04:01:09;8.70;;;7.22;;
32932;SDS011;19444;50.518;10.870;2023-06-10T04:04:06;9.85;;;6.80;;
32932;SDS011;19444;50.518;10.870;2023-06-10T04:07:04;7.20;;;5.63;;
32932;SDS011;19444;50.518;10.870;2023-06-10T04:10:01;10.35;;;6.57;;
32932;SDS011;19444;50.518;10.870;2023-06-10T04:12:59;7.85;;;5.90;;
32932;SDS011;19444;50.518;10.870;2023-06-10T04:15:56;8.27;;;6.57;;
32932;SDS011;19444;50.518;10.870;2023-06-10T04:18:53;8.27;;;6.32;;
32932;SDS011;19444;50.518;10.870;2023-06-10T04:21:50;6.80;;;6.10;;
32932;SDS011;19444;50.518;10.870;2023-06-10T04:24:46;9.70;;;6.93;;
32932;SDS011;19444;50.518;10.870;2023-06-10T04:27:43;7.95;;;6.25;;
32932;SDS011;19444;50.518;10.870;2023-06-10T04:30:40;10.02;;;6.25;;
32932;SDS011;19444;50.518;10.870;2023-06-10T04:33:38;10.13;;;6.78;;
32932;SDS011;19444;50.518;10.870;2023-06-10T04:36:35;9.82;;;6.47;;
32932;SDS011;19444;50.518;10.870;2023-06-10T04:39:31;8.98;;;6.15;;
32932;SDS011;19444;50.518;10.870;2023-06-10T04:42:30;10.05;;;6.70;;
32932;SDS011;19444;50.518;10.870;2023-06-10T04:45:27;8.13;;;5.97;;
32932;SDS011;19444;50.518;10.870;2023-06-10T04:48:26;7.20;;;6.20;;
32932;SDS011;19444;50.518;10.870;2023-06-10T04:51:22;7.05;;;6.05;;
32932;SDS011;19444;50.518;10.870;2023-06-10T04:54:19;8.77;;;6.50;;
32932;SDS011;19444;50.518;10.870;2023-06-10T04:57:16;9.43;;;6.50;;
32932;SDS011;19444;50.518;10.870;2023-06-10T05:00:13;9.30;;;6.05;;
32932;SDS011;19444;50.518;10.870;2023-06-10T05:03:11;8.13;;;5.55;;
32932;SDS011;19444;50.518;10.870;2023-06-10T05:06:08;8.05;;;6.40;;
32932;SDS011;19444;50.518;10.870;2023-06-10T05:09:06;8.30;;;5.40;;
32932;SDS011;19444;50.518;10.870;2023-06-10T05:12:03;9.20;;;6.50;;
32932;SDS011;19444;50.518;10.870;2023-06-10T05:15:01;6.63;;;5.28;;
32932;SDS011;19444;50.518;10.870;2023-06-10T05:17:58;7.32;;;5.13;;
32932;SDS011;19444;50.518;10.870;2023-06-10T05:20:55;8.50;;;5.28;;
32932;SDS011;19444;50.518;10.870;2023-06-10T05:23:52;11.77;;;5.88;;
32932;SDS011;19444;50.518;10.870;2023-06-10T05:26:50;6.85;;;5.07;;
32932;SDS011;19444;50.518;10.870;2023-06-10T05:29:46;8.52;;;4.85;;
32932;SDS011;19444;50.518;10.870;2023-06-10T05:32:43;8.07;;;5.43;;
32932;SDS011;19444;50.518;10.870;2023-06-10T05:35:40;7.50;;;4.88;;
32932;SDS011;19444;50.518;10.870;2023-06-10T05:38:38;7.00;;;5.05;;
32932;SDS011;19444;50.518;10.870;2023-06-10T05:41:34;8.52;;;5.82;;
32932;SDS011;19444;50.518;10.870;2023-06-10T05:44:32;8.60;;;5.85;;
32932;SDS011;19444;50.518;10.870;2023-06-10T05:47:29;9.20;;;5.93;;
32932;SDS011;19444;50.518;10.870;2023-06-10T05:50:26;6.85;;;5.88;;
32932;SDS011;19444;50.518;10.870;2023-06-10T05:53:23;6.50;;;4.70;;
32932;SDS011;19444;50.518;10.870;2023-06-10T05:56:20;7.60;;;5.18;;
32932;SDS011;19444;50.518;10.870;2023-06-10T05:59:18;8.07;;;5.88;;
32932;SDS011;19444;50.518;10.870;2023-06-10T06:02:15;8.82;;;5.93;;
32932;SDS011;19444;50.518;10.870;2023-06-10T06:05:12;8.63;;;6.53;;
32932;SDS011;19444;50.518;10.870;2023-06-10T06:08:10;8.07;;;5.38;;
32932;SDS011;19444;50.518;10.870;2023-06-10T06:11:07;8.38;;;6.07;;
32932;SDS011;19444;50.518;10.870;2023-06-10T06:14:04;12.88;;;6.72;;
32932;SDS011;19444;50.518;10.870;2023-06-10T06:17:01;7.10;;;5.72;;
32932;SDS011;19444;50.518;10.870;2023-06-10T06:19:57;7.72;;;5.43;;
32932;SDS011;19444;50.518;10.870;2023-06-10T06:22:54;7.43;;;5.78;;
32932;SDS011;19444;50.518;10.870;2023-06-10T06:25:51;8.40;;;5.63;;
32932;SDS011;19444;50.518;10.870;2023-06-10T06:28:48;8.23;;;5.38;;
32932;SDS011;19444;50.518;10.870;2023-06-10T06:31:45;7.07;;;5.30;;
32932;SDS011;19444;50.518;10.870;2023-06-10T06:34:42;7.60;;;6.13;;
32932;SDS011;19444;50.518;10.870;2023-06-10T06:37:39;9.15;;;6.82;;
32932;SDS011;19444;50.518;10.870;2023-06-10T06:40:36;7.68;;;5.95;;
32932;SDS011;19444;50.518;10.870;2023-06-10T06:43:33;7.95;;;6.15;;
32932;SDS011;19444;50.518;10.870;2023-06-10T06:46:31;7.05;;;5.80;;
32932;SDS011;19444;50.518;10.870;2023-06-10T06:49:27;7.55;;;5.65;;
32932;SDS011;19444;50.518;10.870;2023-06-10T06:52:24;7.68;;;5.80;;
32932;SDS011;19444;50.518;10.870;2023-06-10T06:55:21;7.93;;;5.78;;
32932;SDS011;19444;50.518;10.870;2023-06-10T06:58:18;11.02;;;6.03;;
32932;SDS011;19444;50.518;10.870;2023-06-10T07:01:15;7.63;;;6.22;;
32932;SDS011;19444;50.518;10.870;2023-06-10T07:04:14;7.07;;;5.82;;
32932;SDS011;19444;50.518;10.870;2023-06-10T07:07:11;8.18;;;5.85;;
32932;SDS011;19444;50.518;10.870;2023-06-10T07:10:08;7.03;;;6.15;;
32932;SDS011;19444;50.518;10.870;2023-06-10T07:13:05;9.38;;;5.80;;
32932;SDS011;19444;50.518;10.870;2023-06-10T07:16:02;7.28;;;5.47;;
32932;SDS011;19444;50.518;10.870;2023-06-10T07:18:59;7.45;;;5.00;;
32932;SDS011;19444;50.518;10.870;2023-06-10T07:22:00;6.47;;;4.53;;
32932;SDS011;19444;50.518;10.870;2023-06-10T07:24:57;7.53;;;5.78;;
32932;SDS011;19444;50.518;10.870;2023-06-10T07:27:54;6.65;;;5.18;;
32932;SDS011;19444;50.518;10.870;2023-06-10T07:30:51;6.35;;;5.32;;
32932;SDS011;19444;50.518;10.870;2023-06-10T07:33:48;7.82;;;5.30;;
32932;SDS011;19444;50.518;10.870;2023-06-10T07:36:45;9.68;;;6.13;;
32932;SDS011;19444;50.518;10.870;2023-06-10T07:39:42;8.63;;;5.70;;
32932;SDS011;19444;50.518;10.870;2023-06-10T07:42:39;6.55;;;4.97;;
32932;SDS011;19444;50.518;10.870;2023-06-10T07:45:36;4.82;;;4.32;;
32932;SDS011;19444;50.518;10.870;2023-06-10T07:48:35;7.05;;;5.38;;
32932;SDS011;19444;50.518;10.870;2023-06-10T07:51:32;5.50;;;4.65;;
32932;SDS011;19444;50.518;10.870;2023-06-10T07:54:29;8.30;;;5.43;;
32932;SDS011;19444;50.518;10.870;2023-06-10T07:57:26;8.48;;;5.68;;
32932;SDS011;19444;50.518;10.870;2023-06-10T08:00:23;6.35;;;5.72;;
32932;SDS011;19444;50.518;10.870;2023-06-10T08:03:20;6.15;;;5.53;;
32932;SDS011;19444;50.518;10.870;2023-06-10T08:06:17;6.38;;;5.70;;
32932;SDS011;19444;50.518;10.870;2023-06-10T08:09:14;6.70;;;5.43;;
32932;SDS011;19444;50.518;10.870;2023-06-10T08:12:12;7.28;;;5.93;;
32932;SDS011;19444;50.518;10.870;2023-06-10T08:15:09;7.35;;;5.78;;
32932;SDS011;19444;50.518;10.870;2023-06-10T08:18:06;7.00;;;6.18;;
32932;SDS011;19444;50.518;10.870;2023-06-10T08:21:03;6.75;;;5.35;;
32932;SDS011;19444;50.518;10.870;2023-06-10T08:24:00;9.45;;;7.18;;
32932;SDS011;19444;50.518;10.870;2023-06-10T08:26:57;7.95;;;5.90;;
32932;SDS011;19444;50.518;10.870;2023-06-10T08:29:54;8.88;;;6.07;;
32932;SDS011;19444;50.518;10.870;2023-06-10T08:32:51;8.40;;;5.32;;
32932;SDS011;19444;50.518;10.870;2023-06-10T08:35:48;6.85;;;5.50;;
32932;SDS011;19444;50.518;10.870;2023-06-10T08:38:45;8.25;;;5.53;;
32932;SDS011;19444;50.518;10.870;2023-06-10T08:41:43;8.05;;;5.05;;
32932;SDS011;19444;50.518;10.870;2023-06-10T08:44:44;6.88;;;5.43;;
32932;SDS011;19444;50.518;10.870;2023-06-10T08:47:42;6.32;;;5.13;;
32932;SDS011;19444;50.518;10.870;2023-06-10T08:50:45;9.20;;;4.72;;
32932;SDS011;19444;50.518;10.870;2023-06-10T08:53:48;5.82;;;4.78;;
32932;SDS011;19444;50.518;10.870;2023-06-10T08:56:59;5.60;;;4.68;;
32932;SDS011;19444;50.518;10.870;2023-06-10T08:59:57;5.70;;;5.10;;
32932;SDS011;19444;50.518;10.870;2023-06-10T09:02:55;6.22;;;5.18;;
32932;SDS011;19444;50.518;10.870;2023-06-10T09:05:57;6.30;;;4.60;;
32932;SDS011;19444;50.518;10.870;2023-06-10T09:08:54;7.85;;;4.50;;
32932;SDS011;19444;50.518;10.870;2023-06-10T09:11:51;6.82;;;4.68;;
32932;SDS011;19444;50.518;10.870;2023-06-10T09:14:48;6.70;;;4.47;;
32932;SDS011;19444;50.518;10.870;2023-06-10T09:17:45;4.90;;;4.32;;
32932;SDS011;19444;50.518;10.870;2023-06-10T09:20:43;7.20;;;4.68;;
32932;SDS011;19444;50.518;10.870;2023-06-10T09:23:40;8.07;;;3.95;;
32932;SDS011;19444;50.518;10.870;2023-06-10T09:26:38;4.65;;;4.07;;
32932;SDS011;19444;50.518;10.870;2023-06-10T09:29:51;7.50;;;4.50;;
32932;SDS011;19444;50.518;10.870;2023-06-10T09:32:57;4.80;;;4.18;;
32932;SDS011;19444;50.518;10.870;2023-06-10T09:35:56;4.63;;;4.20;;
32932;SDS011;19444;50.518;10.870;2023-06-10T09:38:57;5.88;;;5.25;;
32932;SDS011;19444;50.518;10.870;2023-06-10T09:41:54;6.50;;;4.07;;
32932;SDS011;19444;50.518;10.870;2023-06-10T09:44:51;5.00;;;4.32;;
32932;SDS011;19444;50.518;10.870;2023-06-10T09:47:52;6.28;;;4.63;;
32932;SDS011;19444;50.518;10.870;2023-06-10T09:50:50;6.00;;;4.85;;
32932;SDS011;19444;50.518;10.870;2023-06-10T09:53:53;5.72;;;4.00;;
32932;SDS011;19444;50.518;10.870;2023-06-10T09:56:51;5.65;;;4.10;;
32932;SDS011;19444;50.518;10.870;2023-06-10T09:59:51;5.72;;;3.90;;
32932;SDS011;19444;50.518;10.870;2023-06-10T10:02:50;4.75;;;4.05;;
32932;SDS011;19444;50.518;10.870;2023-06-10T10:05:51;4.88;;;4.28;;
32932;SDS011;19444;50.518;10.870;2023-06-10T10:08:56;4.70;;;4.05;;
32932;SDS011;19444;50.518;10.870;2023-06-10T10:11:53;9.65;;;4.78;;
32932;SDS011;19444;50.518;10.870;2023-06-10T10:14:51;8.98;;;4.72;;
32932;SDS011;19444;50.518;10.870;2023-06-10T10:18:07;4.50;;;4.03;;
32932;SDS011;19444;50.518;10.870;2023-06-10T10:21:10;4.38;;;3.97;;
32932;SDS011;19444;50.518;10.870;2023-06-10T10:24:16;6.32;;;4.22;;
32932;SDS011;19444;50.518;10.870;2023-06-10T10:27:21;5.50;;;4.60;;
32932;SDS011;19444;50.518;10.870;2023-06-10T10:30:34;7.28;;;4.90;;
32932;SDS011;19444;50.518;10.870;2023-06-10T10:33:49;6.28;;;4.10;;
32932;SDS011;19444;50.518;10.870;2023-06-10T10:36:59;6.18;;;4.53;;
32932;SDS011;19444;50.518;10.870;2023-06-10T10:39:56;4.85;;;4.32;;
32932;SDS011;19444;50.518;10.870;2023-06-10T10:42:54;6.75;;;4.43;;
32932;SDS011;19444;50.518;10.870;2023-06-10T10:45:59;5.70;;;4.15;;
32932;SDS011;19444;50.518;10.870;2023-06-10T10:49:02;5.32;;;4.20;;
32932;SDS011;19444;50.518;10.870;2023-06-10T10:52:00;4.40;;;3.92;;
32932;SDS011;19444;50.518;10.870;2023-06-10T10:54:58;5.63;;;4.50;;
32932;SDS011;19444;50.518;10.870;2023-06-10T10:57:56;5.25;;;4.75;;
32932;SDS011;19444;50.518;10.870;2023-06-10T11:01:12;5.60;;;4.50;;
32932;SDS011;19444;50.518;10.870;2023-06-10T11:04:11;5.63;;;4.70;;
32932;SDS011;19444;50.518;10.870;2023-06-10T11:07:09;5.03;;;3.90;;
32932;SDS011;19444;50.518;10.870;2023-06-10T11:10:07;4.90;;;4.45;;
32932;SDS011;19444;50.518;10.870;2023-06-10T11:13:13;5.65;;;4.65;;
32932;SDS011;19444;50.518;10.870;2023-06-10T11:16:11;6.47;;;4.10;;
32932;SDS011;19444;50.518;10.870;2023-06-10T11:19:35;5.70;;;4.95;;
32932;SDS011;19444;50.518;10.870;2023-06-10T11:22:42;4.45;;;4.00;;
32932;SDS011;19444;50.518;10.870;2023-06-10T11:29:11;6.40;;;5.47;;
32932;SDS011;19444;50.518;10.870;2023-06-10T11:32:11;5.57;;;4.45;;
32932;SDS011;19444;50.518;10.870;2023-06-10T11:35:09;6.50;;;5.07;;
32932;SDS011;19444;50.518;10.870;2023-06-10T11:38:06;5.10;;;4.63;;
32932;SDS011;19444;50.518;10.870;2023-06-10T11:41:03;5.78;;;5.18;;
32932;SDS011;19444;50.518;10.870;2023-06-10T11:44:01;7.75;;;5.38;;
32932;SDS011;19444;50.518;10.870;2023-06-10T11:47:06;5.72;;;5.10;;
32932;SDS011;19444;50.518;10.870;2023-06-10T11:50:06;5.60;;;4.95;;
32932;SDS011;19444;50.518;10.870;2023-06-10T11:53:03;6.25;;;4.78;;
32932;SDS011;19444;50.518;10.870;2023-06-10T11:56:00;5.85;;;5.32;;
32932;SDS011;19444;50.518;10.870;2023-06-10T11:59:04;6.05;;;5.45;;
32932;SDS011;19444;50.518;10.870;2023-06-10T12:02:05;6.15;;;5.07;;
32932;SDS011;19444;50.518;10.870;2023-06-10T12:05:11;5.63;;;4.75;;
32932;SDS011;19444;50.518;10.870;2023-06-10T12:08:09;6.53;;;5.93;;
32932;SDS011;19444;50.518;10.870;2023-06-10T12:11:08;6.40;;;5.80;;
32932;SDS011;19444;50.518;10.870;2023-06-10T12:14:05;6.47;;;5.07;;
32932;SDS011;19444;50.518;10.870;2023-06-10T12:17:02;5.80;;;5.20;;
32932;SDS011;19444;50.518;10.870;2023-06-10T12:20:03;6.18;;;5.57;;
32932;SDS011;19444;50.518;10.870;2023-06-10T12:23:10;6.55;;;5.80;;
32932;SDS011;19444;50.518;10.870;2023-06-10T12:26:09;6.32;;;5.68;;
32932;SDS011;19444;50.518;10.870;2023-06-10T12:29:15;7.07;;;5.43;;
32932;SDS011;19444;50.518;10.870;2023-06-10T12:32:15;6.43;;;5.78;;
32932;SDS011;19444;50.518;10.870;2023-06-10T12:35:14;5.57;;;4.80;;
32932;SDS011;19444;50.518;10.870;2023-06-10T12:38:25;5.57;;;5.10;;
32932;SDS011;19444;50.518;10.870;2023-06-10T12:41:27;6.28;;;5.78;;
32932;SDS011;19444;50.518;10.870;2023-06-10T12:44:31;5.65;;;5.05;;
32932;SDS011;19444;50.518;10.870;2023-06-10T12:47:30;5.50;;;5.03;;
32932;SDS011;19444;50.518;10.870;2023-06-10T12:50:28;7.38;;;5.50;;
32932;SDS011;19444;50.518;10.870;2023-06-10T12:53:26;6.20;;;5.60;;
32932;SDS011;19444;50.518;10.870;2023-06-10T12:56:23;6.95;;;6.13;;
32932;SDS011;19444;50.518;10.870;2023-06-10T12:59:20;6.18;;;5.65;;
32932;SDS011;19444;50.518;10.870;2023-06-10T13:02:17;7.15;;;6.45;;
32932;SDS011;19444;50.518;10.870;2023-06-10T13:05:16;8.05;;;7.25;;
32932;SDS011;19444;50.518;10.870;2023-06-10T13:08:14;6.97;;;6.32;;
32932;SDS011;19444;50.518;10.870;2023-06-10T13:11:12;8.30;;;6.68;;
32932;SDS011;19444;50.518;10.870;2023-06-10T13:14:09;7.57;;;6.85;;
32932;SDS011;19444;50.518;10.870;2023-06-10T13:17:07;7.70;;;7.00;;
32932;SDS011;19444;50.518;10.870;2023-06-10T13:20:04;8.18;;;7.35;;
32932;SDS011;19444;50.518;10.870;2023-06-10T13:23:03;7.47;;;6.77;;
32932;SDS011;19444;50.518;10.870;2023-06-10T13:26:00;9.07;;;7.68;;
32932;SDS011;19444;50.518;10.870;2023-06-10T13:28:59;8.80;;;7.25;;
32932;SDS011;19444;50.518;10.870;2023-06-10T13:31:56;8.25;;;7.45;;
32932;SDS011;19444;50.518;10.870;2023-06-10T13:34:53;8.25;;;6.60;;
32932;SDS011;19444;50.518;10.870;2023-06-10T13:37:50;7.38;;;5.53;;
32932;SDS011;19444;50.518;10.870;2023-06-10T13:40:47;5.65;;;5.15;;
32932;SDS011;19444;50.518;10.870;2023-06-10T13:43:44;6.13;;;5.53;;
32932;SDS011;19444;50.518;10.870;2023-06-10T13:46:40;6.05;;;5.45;;
32932;SDS011;19444;50.518;10.870;2023-06-10T13:49:37;5.65;;;5.15;;
32932;SDS011;19444;50.518;10.870;2023-06-10T13:52:35;5.38;;;4.88;;
32932;SDS011;19444;50.518;10.870;2023-06-10T13:55:32;4.65;;;4.25;;
32932;SDS011;19444;50.518;10.870;2023-06-10T13:58:29;4.60;;;4.20;;
32932;SDS011;19444;50.518;10.870;2023-06-10T14:01:25;6.00;;;4.57;;
32932;SDS011;19444;50.518;10.870;2023-06-10T14:04:22;5.30;;;4.28;;
32932;SDS011;19444;50.518;10.870;2023-06-10T14:07:19;5.00;;;4.32;;
32932;SDS011;19444;50.518;10.870;2023-06-10T14:10:16;5.70;;;3.97;;
32932;SDS011;19444;50.518;10.870;2023-06-10T14:13:13;5.25;;;4.05;;
32932;SDS011;19444;50.518;10.870;2023-06-10T14:16:10;5.15;;;4.60;;
32932;SDS011;19444;50.518;10.870;2023-06-10T14:19:07;4.70;;;4.30;;
32932;SDS011;19444;50.518;10.870;2023-06-10T14:22:04;5.57;;;4.50;;
32932;SDS011;19444;50.518;10.870;2023-06-10T14:25:03;5.53;;;5.03;;
32932;SDS011;19444;50.518;10.870;2023-06-10T14:28:01;6.05;;;4.85;;
32932;SDS011;19444;50.518;10.870;2023-06-10T14:30:58;5.18;;;4.63;;
32932;SDS011;19444;50.518;10.870;2023-06-10T14:33:55;5.55;;;5.07;;
32932;SDS011;19444;50.518;10.870;2023-06-10T14:36:52;4.85;;;4.45;;
32932;SDS011;19444;50.518;10.870;2023-06-10T14:39:49;5.05;;;4.55;;
32932;SDS011;19444;50.518;10.870;2023-06-10T14:42:45;4.93;;;4.53;;
32932;SDS011;19444;50.518;10.870;2023-06-10T14:45:42;4.13;;;3.70;;
32932;SDS011;19444;50.518;10.870;2023-06-10T14:48:41;4.90;;;4.20;;
32932;SDS011;19444;50.518;10.870;2023-06-10T14:51:38;4.95;;;3.95;;
32932;SDS011;19444;50.518;10.870;2023-06-10T14:54:34;5.00;;;4.60;;
32932;SDS011;19444;50.518;10.870;2023-06-10T14:57:31;8.15;;;4.95;;
32932;SDS011;19444;50.518;10.870;2023-06-10T15:00:32;5.45;;;4.82;;
32932;SDS011;19444;50.518;10.870;2023-06-10T15:03:28;6.95;;;5.18;;
32932;SDS011;19444;50.518;10.870;2023-06-10T15:06:25;5.57;;;5.00;;
32932;SDS011;19444;50.518;10.870;2023-06-10T15:09:22;5.00;;;4.57;;
32932;SDS011;19444;50.518;10.870;2023-06-10T15:12:19;4.70;;;4.20;;
32932;SDS011;19444;50.518;10.870;2023-06-10T15:15:16;6.43;;;4.85;;
32932;SDS011;19444;50.518;10.870;2023-06-10T15:18:13;4.35;;;3.95;;
32932;SDS011;19444;50.518;10.870;2023-06-10T15:21:10;5.13;;;4.40;;
32932;SDS011;19444;50.518;10.870;2023-06-10T15:24:07;5.00;;;4.50;;
32932;SDS011;19444;50.518;10.870;2023-06-10T15:27:04;6.35;;;4.60;;
32932;SDS011;19444;50.518;10.870;2023-06-10T15:30:02;4.25;;;3.58;;
32932;SDS011;19444;50.518;10.870;2023-06-10T15:32:59;4.63;;;4.15;;
32932;SDS011;19444;50.518;10.870;2023-06-10T15:35:56;5.30;;;4.60;;
32932;SDS011;19444;50.518;10.870;2023-06-10T15:38:53;6.78;;;4.50;;
32932;SDS011;19444;50.518;10.870;2023-06-10T15:41:56;5.53;;;5.03;;
32932;SDS011;19444;50.518;10.870;2023-06-10T15:44:53;4.78;;;4.15;;
32932;SDS011;19444;50.518;10.870;2023-06-10T15:47:50;5.18;;;4.68;;
32932;SDS011;19444;50.518;10.870;2023-06-10T15:50:47;5.55;;;4.97;;
32932;SDS011;19444;50.518;10.870;2023-06-10T15:53:44;4.95;;;4.20;;
32932;SDS011;19444;50.518;10.870;2023-06-10T15:56:43;4.63;;;3.88;;
32932;SDS011;19444;50.518;10.870;2023-06-10T15:59:40;5.57;;;4.15;;
32932;SDS011;19444;50.518;10.870;2023-06-10T16:02:37;4.32;;;3.92;;
32932;SDS011;19444;50.518;10.870;2023-06-10T16:05:34;4.90;;;4.40;;
32932;SDS011;19444;50.518;10.870;2023-06-10T16:08:31;6.60;;;4.65;;
32932;SDS011;19444;50.518;10.870;2023-06-10T16:11:28;11.93;;;10.77;;
32932;SDS011;19444;50.518;10.870;2023-06-10T16:14:25;8.02;;;6.05;;
32932;SDS011;19444;50.518;10.870;2023-06-10T16:17:22;5.75;;;4.78;;
32932;SDS011;19444;50.518;10.870;2023-06-10T16:20:19;5.03;;;3.80;;
32932;SDS011;19444;50.518;10.870;2023-06-10T16:23:16;7.05;;;4.00;;
32932;SDS011;19444;50.518;10.870;2023-06-10T16:26:13;4.70;;;4.30;;
32932;SDS011;19444;50.518;10.870;2023-06-10T16:29:10;5.38;;;4.22;;
32932;SDS011;19444;50.518;10.870;2023-06-10T16:32:07;6.13;;;3.95;;
32932;SDS011;19444;50.518;10.870;2023-06-10T16:35:04;4.80;;;3.97;;
32932;SDS011;19444;50.518;10.870;2023-06-10T16:38:01;3.80;;;3.08;;
32932;SDS011;19444;50.518;10.870;2023-06-10T16:40:59;7.80;;;6.30;;
32932;SDS011;19444;50.518;10.870;2023-06-10T16:43:56;5.32;;;4.82;;
32932;SDS011;19444;50.518;10.870;2023-06-10T16:46:56;5.00;;;3.97;;
32932;SDS011;19444;50.518;10.870;2023-06-10T16:49:53;4.45;;;4.05;;
32932;SDS011;19444;50.518;10.870;2023-06-10T16:52:50;5.28;;;4.05;;
32932;SDS011;19444;50.518;10.870;2023-06-10T16:55:47;6.80;;;4.80;;
32932;SDS011;19444;50.518;10.870;2023-06-10T16:58:44;4.25;;;3.85;;
32932;SDS011;19444;50.518;10.870;2023-06-10T17:01:41;13.90;;;10.57;;
32932;SDS011;19444;50.518;10.870;2023-06-10T17:04:38;12.35;;;7.07;;
32932;SDS011;19444;50.518;10.870;2023-06-10T17:07:35;6.38;;;4.50;;
32932;SDS011;19444;50.518;10.870;2023-06-10T17:10:31;4.28;;;3.88;;
32932;SDS011;19444;50.518;10.870;2023-06-10T17:13:28;9.65;;;7.20;;
32932;SDS011;19444;50.518;10.870;2023-06-10T17:16:26;5.28;;;4.53;;
32932;SDS011;19444;50.518;10.870;2023-06-10T17:19:23;5.10;;;4.05;;
32932;SDS011;19444;50.518;10.870;2023-06-10T17:22:20;7.82;;;4.25;;
32932;SDS011;19444;50.518;10.870;2023-06-10T17:25:16;4.80;;;4.10;;
32932;SDS011;19444;50.518;10.870;2023-06-10T17:28:13;5.97;;;4.63;;
32932;SDS011;19444;50.518;10.870;2023-06-10T17:31:10;5.78;;;4.38;;
32932;SDS011;19444;50.518;10.870;2023-06-10T17:34:07;4.38;;;3.97;;
32932;SDS011;19444;50.518;10.870;2023-06-10T17:37:04;4.93;;;4.45;;
32932;SDS011;19444;50.518;10.870;2023-06-10T17:40:01;4.97;;;4.32;;
32932;SDS011;19444;50.518;10.870;2023-06-10T17:42:59;4.30;;;3.90;;
32932;SDS011;19444;50.518;10.870;2023-06-10T17:45:56;5.15;;;3.88;;